Arklow Mill — EIJD9 — position and weather

sailwx.info

Track history (hours):
 
Tides and Currents Weather Stations Pressure Air Temp Water Temp Dewpoint Dewpoint Depression Visibility Wind Speed Wind Dir Waves Ship Positions

Arklow Mill

Last reported at 2017-Sep-21 20:51 UTC. Time now 2017-Sep-23 18:33 UTC.
Position N 49°27' E 000°40'.

Length 137 m; draft 8.4 m.

Type: Ship. MMSI: 250002022.

Date/timePositionNaut miles runAvg speedWind from/ knotsBaromVisibWave heightAir tempDewpointWater temp
2017-Sep-21 20:51N 49°27' E 000°40'512.1
2017-Sep-21 20:29N 49°28' E 000°33'511.5
2017-Sep-21 20:01N 49°27' E 000°24'815.4
2017-Sep-21 19:30N 49°26' E 000°13'815.5
2017-Sep-21 19:00N 49°27' E 000°01'5 9.3
2017-Sep-21 18:31N 49°28' W 000°06'0 0.2
2017-Sep-21 18:00N 49°28' W 000°06'0 0.0
2017-Sep-21 17:30N 49°28' W 000°06'0 0.2
2017-Sep-21 17:00N 49°28' W 000°06'0 0.1
2017-Sep-21 16:30N 49°28' W 000°06'0 0.0
2017-Sep-21 16:00N 49°28' W 000°06'0 0.1
2017-Sep-21 15:30N 49°28' W 000°06'0 0.0
2017-Sep-21 15:00N 49°28' W 000°06'0 0.1
2017-Sep-21 14:30N 49°28' W 000°06'4 8.8
2017-Sep-21 14:01N 49°30' W 000°12'712.1
2017-Sep-21 13:24N 49°38' W 000°11'512.4
2017-Sep-21 13:00N 49°42' W 000°10'3312.1
2017-Sep-21 10:15N 50°16' W 000°05'311.8
2017-Sep-21 10:00N 50°19' W 000°04'612.0
2017-Sep-21 09:30N 50°25' W 000°03'510.2
2017-Sep-21 09:01N 50°28' E 000°02'611.1
2017-Sep-21 08:31N 50°30' E 000°11'611.4
2017-Sep-21 08:00N 50°32' E 000°19'611.8
2017-Sep-21 07:30N 50°33' E 000°28'612.5
2017-Sep-21 07:00N 50°36' E 000°37'713.6
2017-Sep-21 06:30N 50°40' E 000°46'714.9
2017-Sep-21 06:00N 50°44' E 000°55'1614.1
2017-Sep-21 04:52N 50°54' E 001°16'513.5
2017-Sep-21 04:28N 50°58' E 001°22'613.2
2017-Sep-21 04:00N 51°02' E 001°28'611.8
2017-Sep-21 03:30N 51°07' E 001°34'510.7
2017-Sep-21 03:01N 51°10' E 001°40'510.9
2017-Sep-21 02:30N 51°14' E 001°47'510.4
2017-Sep-21 02:00N 51°18' E 001°52'510.5
2017-Sep-21 01:30N 51°22' E 001°57'5 9.5
2017-Sep-21 01:01N 51°24' E 002°04'612.4
2017-Sep-21 00:30N 51°21' E 002°12'611.1
2017-Sep-21 00:01N 51°22' E 002°21'611.6
2017-Sep-20 23:31N 51°23' E 002°30'612.2
2017-Sep-20 23:01N 51°23' E 002°40'712.2
2017-Sep-20 22:28N 51°22' E 002°50'715.0
2017-Sep-20 22:00N 51°24' E 003°01'714.4
2017-Sep-20 21:31N 51°25' E 003°12'714.6
2017-Sep-20 21:00N 51°25' E 003°24'713.7
2017-Sep-20 20:30N 51°25' E 003°35'5 9.3
2017-Sep-20 20:00N 51°24' E 003°42'611.9
2017-Sep-20 19:30N 51°20' E 003°49'0 0.0
2017-Sep-20 19:00N 51°20' E 003°49'0 0.9
2017-Sep-20 18:31N 51°19' E 003°49'2 3.0
2017-Sep-20 18:00N 51°18' E 003°50'3 6.1
2017-Sep-20 17:30N 51°15' E 003°49'4 7.2
2017-Sep-20 17:01N 51°11' E 003°48'2 4.1
2017-Sep-20 16:31N 51°09' E 003°47'3 6.7
2017-Sep-20 16:01N 51°07' E 003°44'1 2.0
2017-Sep-20 15:28N 51°05' E 003°44'0 0.0
2017-Sep-20 15:00N 51°05' E 003°44'0 0.0
2017-Sep-20 14:01N 51°05' E 003°44'0 0.0
2017-Sep-20 13:28N 51°05' E 003°44'0 0.0
2017-Sep-20 12:59N 51°05' E 003°44'0 0.0
2017-Sep-20 12:28N 51°05' E 003°44'0 0.0
2017-Sep-20 12:00N 51°05' E 003°44'0 0.0
2017-Sep-20 11:30N 51°05' E 003°44'0 0.0
2017-Sep-20 11:01N 51°05' E 003°44'0 0.0
2017-Sep-20 10:30N 51°05' E 003°44'0 0.0
2017-Sep-20 10:00N 51°05' E 003°44'0 0.0
2017-Sep-20 09:31N 51°05' E 003°44'0 0.0
2017-Sep-20 09:00N 51°05' E 003°44'0 0.0
2017-Sep-20 08:30N 51°05' E 003°44'0 0.0
2017-Sep-20 08:00N 51°05' E 003°44'0 0.0
2017-Sep-20 07:30N 51°05' E 003°44'0 0.0
2017-Sep-20 06:58N 51°05' E 003°44'0 0.0
2017-Sep-20 06:25N 51°05' E 003°44'0 0.0
2017-Sep-20 05:58N 51°05' E 003°44'0 0.0
2017-Sep-20 05:28N 51°05' E 003°44'0 0.0
2017-Sep-20 04:58N 51°05' E 003°44'0 0.0
2017-Sep-20 04:28N 51°05' E 003°44'0 0.0
2017-Sep-20 03:58N 51°05' E 003°44'0 0.0
2017-Sep-20 03:28N 51°05' E 003°44'0 0.0
2017-Sep-20 02:58N 51°05' E 003°44'0 0.0
2017-Sep-20 02:29N 51°05' E 003°44'0 0.0
2017-Sep-20 01:59N 51°05' E 003°44'0 0.0
2017-Sep-20 01:30N 51°05' E 003°44'0 0.0
2017-Sep-20 00:59N 51°05' E 003°44'0 0.0
2017-Sep-20 00:29N 51°05' E 003°44'0 0.0
2017-Sep-20 00:00N 51°05' E 003°44'0 0.0
2017-Sep-19 23:30N 51°05' E 003°44'0 0.0
2017-Sep-19 23:00N 51°05' E 003°44'0 0.0
2017-Sep-19 22:31N 51°05' E 003°44'0 0.0
2017-Sep-19 22:01N 51°05' E 003°44'0 0.0
2017-Sep-19 21:29N 51°05' E 003°44'0 0.0
2017-Sep-19 20:59N 51°05' E 003°44'0 0.0
2017-Sep-19 20:26N 51°05' E 003°44'0 0.0
2017-Sep-19 19:59N 51°05' E 003°44'0 0.0
2017-Sep-19 19:29N 51°05' E 003°44'0 0.0
2017-Sep-19 18:59N 51°05' E 003°44'0 0.0
2017-Sep-19 18:29N 51°05' E 003°44'0 0.0
2017-Sep-19 17:59N 51°05' E 003°44'0 0.0
2017-Sep-19 17:29N 51°05' E 003°44'0 0.0
2017-Sep-19 17:00N 51°05' E 003°44'0 0.0
2017-Sep-19 16:29N 51°05' E 003°44'0 0.0
2017-Sep-19 16:00N 51°05' E 003°44'0 0.0
2017-Sep-19 15:26N 51°05' E 003°44'0 0.0
2017-Sep-19 14:59N 51°05' E 003°44'0 0.0
2017-Sep-19 14:29N 51°05' E 003°44'0 0.0
2017-Sep-19 14:00N 51°05' E 003°44'0 0.0
2017-Sep-19 13:29N 51°05' E 003°44'0 0.0
2017-Sep-19 12:59N 51°05' E 003°44'0 0.0
2017-Sep-19 12:30N 51°05' E 003°44'0 0.0
2017-Sep-19 12:00N 51°05' E 003°44'0 0.0
2017-Sep-19 11:30N 51°05' E 003°44'0 0.0
2017-Sep-19 11:00N 51°05' E 003°44'0 0.0
2017-Sep-19 10:31N 51°05' E 003°44'0 0.0
2017-Sep-19 10:01N 51°05' E 003°44'0 0.0
2017-Sep-19 09:30N 51°05' E 003°44'0 0.0
2017-Sep-19 08:55N 51°05' E 003°44'0 0.0
2017-Sep-19 08:28N 51°05' E 003°44'0 0.0
2017-Sep-19 07:55N 51°05' E 003°44'0 0.0
2017-Sep-19 07:28N 51°05' E 003°44'0 0.0
2017-Sep-19 06:58N 51°05' E 003°44'0 0.0
2017-Sep-19 06:30N 51°05' E 003°44'0 0.0
2017-Sep-19 05:58N 51°05' E 003°44'0 0.0
2017-Sep-19 05:26N 51°05' E 003°44'0 0.0
2017-Sep-19 04:58N 51°05' E 003°44'0 0.0
2017-Sep-19 04:29N 51°05' E 003°44'0 0.0
2017-Sep-19 03:58N 51°05' E 003°44'0 0.0
2017-Sep-19 03:30N 51°05' E 003°44'0 0.0
2017-Sep-19 02:59N 51°05' E 003°44'0 0.0
2017-Sep-19 02:30N 51°05' E 003°44'0 0.0
2017-Sep-19 02:00N 51°05' E 003°44'0 0.0
2017-Sep-19 01:28N 51°05' E 003°44'0 0.0
2017-Sep-19 01:00N 51°05' E 003°44'0 0.0
2017-Sep-19 00:30N 51°05' E 003°44'0 0.0
2017-Sep-19 00:01N 51°05' E 003°44'0 0.0
2017-Sep-18 23:28N 51°05' E 003°44'0 0.0
2017-Sep-18 22:58N 51°05' E 003°44'0 0.0
2017-Sep-18 22:30N 51°05' E 003°44'0 0.0
2017-Sep-18 22:01N 51°05' E 003°44'0 0.0
2017-Sep-18 21:31N 51°05' E 003°44'0 0.0
2017-Sep-18 21:00N 51°05' E 003°44'0 0.0
2017-Sep-18 20:28N 51°05' E 003°44'0 0.0
2017-Sep-18 19:59N 51°05' E 003°44'0 0.0
2017-Sep-18 19:28N 51°05' E 003°44'0 0.0
2017-Sep-18 19:01N 51°05' E 003°44'0 0.0
2017-Sep-18 18:28N 51°05' E 003°44'0 0.0
2017-Sep-18 17:59N 51°05' E 003°44'0 0.0
2017-Sep-18 17:30N 51°05' E 003°44'0 0.0
2017-Sep-18 16:59N 51°05' E 003°44'0 0.0
2017-Sep-18 16:30N 51°05' E 003°44'0 0.0
2017-Sep-18 16:00N 51°05' E 003°44'0 0.0
2017-Sep-18 15:25N 51°05' E 003°44'0 0.0
2017-Sep-18 14:58N 51°05' E 003°44'0 0.0
2017-Sep-18 14:30N 51°05' E 003°44'0 0.0
2017-Sep-18 13:58N 51°05' E 003°44'0 0.0
2017-Sep-18 13:29N 51°05' E 003°44'0 0.0
2017-Sep-18 13:00N 51°05' E 003°44'0 0.0
2017-Sep-18 12:29N 51°05' E 003°44'0 0.0
2017-Sep-18 11:59N 51°05' E 003°44'0 0.0
2017-Sep-18 11:28N 51°05' E 003°44'0 0.0
2017-Sep-18 10:59N 51°05' E 003°44'0 0.0
2017-Sep-18 10:29N 51°05' E 003°44'0 0.0
2017-Sep-18 09:59N 51°05' E 003°44'0 0.0
2017-Sep-18 09:30N 51°05' E 003°44'0 0.0
2017-Sep-18 08:59N 51°05' E 003°44'0 0.0
2017-Sep-18 08:29N 51°05' E 003°44'0 0.0
2017-Sep-18 07:59N 51°05' E 003°44'0 0.0
2017-Sep-18 07:29N 51°05' E 003°44'0 0.0
2017-Sep-18 06:56N 51°05' E 003°44'0 0.0
2017-Sep-18 06:29N 51°05' E 003°44'0 0.0
2017-Sep-18 06:00N 51°05' E 003°44'0 0.0
2017-Sep-18 05:30N 51°05' E 003°44'0 0.0
2017-Sep-18 04:57N 51°05' E 003°44'0 0.0
2017-Sep-18 04:29N 51°05' E 003°44'0 0.0
2017-Sep-18 03:58N 51°05' E 003°44'0 0.0
2017-Sep-18 03:28N 51°05' E 003°44'0 0.0
2017-Sep-18 02:58N 51°05' E 003°44'0 0.0
2017-Sep-18 02:28N 51°05' E 003°44'0 0.0
2017-Sep-18 01:58N 51°05' E 003°44'0 0.0
2017-Sep-18 01:29N 51°05' E 003°44'0 0.0
2017-Sep-18 01:00N 51°05' E 003°44'0 0.0
2017-Sep-18 00:31N 51°05' E 003°44'0 0.0
2017-Sep-18 00:00N 51°05' E 003°44'0 0.0
2017-Sep-17 23:31N 51°05' E 003°44'0 0.0
2017-Sep-17 23:00N 51°05' E 003°44'0 0.0
2017-Sep-17 22:28N 51°05' E 003°44'0 0.0
2017-Sep-17 21:59N 51°05' E 003°44'0 0.0
2017-Sep-17 21:29N 51°05' E 003°44'0 0.0
2017-Sep-17 21:01N 51°05' E 003°44'0 0.0
2017-Sep-17 20:30N 51°05' E 003°44'0 0.0
2017-Sep-17 20:00N 51°05' E 003°44'0 0.0
2017-Sep-17 19:26N 51°05' E 003°44'0 0.0
2017-Sep-17 19:00N 51°05' E 003°44'0 0.0
2017-Sep-17 18:26N 51°05' E 003°44'0 0.8
2017-Sep-17 18:01N 51°06' E 003°44'3 5.1
2017-Sep-17 17:31N 51°08' E 003°46'3 6.9
2017-Sep-17 17:01N 51°11' E 003°48'3 6.8
2017-Sep-17 16:31N 51°14' E 003°49'3 6.3
2017-Sep-17 16:01N 51°17' E 003°50'2 4.6
2017-Sep-17 15:30N 51°20' E 003°49'0 0.8
2017-Sep-17 15:00N 51°20' E 003°49'3 6.2
2017-Sep-17 14:30N 51°22' E 003°45'4 8.3
2017-Sep-17 14:00N 51°26' E 003°41'4 7.7
2017-Sep-17 13:30N 51°26' E 003°35'3 6.9
2017-Sep-17 13:00N 51°28' E 003°31'510.4
2017-Sep-17 12:30N 51°32' E 003°25'4 8.8
2017-Sep-17 12:00N 51°36' E 003°23'12510.8
2017-Sep-17 00:28N 53°30' E 004°46'511.1
2017-Sep-17 00:01N 53°32' E 004°54'10210.8
2017-Sep-16 14:38N 54°01' E 007°39'1110.7
2017-Sep-16 13:37N 54°01' E 007°58'111.2
2017-Sep-16 13:30N 54°01' E 007°60'611.7
2017-Sep-16 13:01N 54°01' E 008°10'713.3
2017-Sep-16 12:30N 53°60' E 008°21'815.4
2017-Sep-16 12:00N 53°58' E 008°34'815.3
2017-Sep-16 11:30N 53°53' E 008°43'713.2
2017-Sep-16 11:01N 53°51' E 008°53'713.1
2017-Sep-16 10:31N 53°52' E 009°04'3 6.1
2017-Sep-16 10:00N 53°54' E 009°09'0 0.4
2017-Sep-16 09:30N 53°54' E 009°09'2 4.7
2017-Sep-16 09:01N 53°55' E 009°12'3 6.9
2017-Sep-16 08:30N 53°58' E 009°15'3 6.8
2017-Sep-16 08:00N 54°01' E 009°18'3 5.1
2017-Sep-16 07:30N 54°04' E 009°19'44 5.5
2017-Sep-15 23:32N 54°30' E 010°19'112.5
2017-Sep-15 23:28N 54°31' E 010°20'612.1
2017-Sep-15 23:00N 54°33' E 010°29'612.2
2017-Sep-15 22:30N 54°35' E 010°39'612.4
2017-Sep-15 22:00N 54°36' E 010°49'612.1
2017-Sep-15 21:30N 54°36' E 010°60'611.9
2017-Sep-15 21:00N 54°36' E 011°10'612.3
2017-Sep-15 20:30N 54°34' E 011°20'612.1
2017-Sep-15 20:00N 54°31' E 011°29'612.2
2017-Sep-15 19:30N 54°28' E 011°38'612.5
2017-Sep-15 19:00N 54°27' E 011°49'911.9
2017-Sep-15 18:17N 54°26' E 012°04'311.4
2017-Sep-15 18:00N 54°27' E 012°09'611.3
2017-Sep-15 17:30N 54°32' E 012°12'611.3
2017-Sep-15 17:00N 54°37' E 012°18'5511.5
2017-Sep-15 12:13N 54°60' E 013°44'711.5
2017-Sep-15 11:37N 55°02' E 013°56'511.5
2017-Sep-15 11:13N 55°04' E 014°03'511.5
2017-Sep-15 10:48N 55°08' E 014°09'411.7
2017-Sep-15 10:28N 55°11' E 014°14'711.9
2017-Sep-15 09:53N 55°16' E 014°21'712.4
2017-Sep-15 09:19N 55°21' E 014°29'412.5
2017-Sep-15 09:00N 55°24' E 014°34'1212.1
2017-Sep-15 08:03N 55°30' E 014°51'311.8
2017-Sep-15 07:47N 55°32' E 014°56'412.0
2017-Sep-15 07:26N 55°34' E 015°03'512.3
2017-Sep-15 07:00N 55°36' E 015°11'612.4
2017-Sep-15 06:30N 55°39' E 015°21'  
Track history (hours):
 
Tides and Currents Weather Stations Pressure Air Temp Water Temp Dewpoint Dewpoint Depression Visibility Wind Speed Wind Dir Waves Ship Positions

Arklow Mill

Last reported at 2017-Sep-21 20:51 UTC. Time now 2017-Sep-23 18:33 UTC.
Position N 49°27' E 000°40'.

Length 137 m; draft 8.4 m.

Type: Ship. MMSI: 250002022.

Date/timePositionNaut miles runAvg speedWind from/ knotsBaromVisibWave heightAir tempDewpointWater temp
2017-Sep-21 20:51N 49°27' E 000°40'512.1
2017-Sep-21 20:29N 49°28' E 000°33'511.5
2017-Sep-21 20:01N 49°27' E 000°24'815.4
2017-Sep-21 19:30N 49°26' E 000°13'815.5
2017-Sep-21 19:00N 49°27' E 000°01'5 9.3
2017-Sep-21 18:31N 49°28' W 000°06'0 0.2
2017-Sep-21 18:00N 49°28' W 000°06'0 0.0
2017-Sep-21 17:30N 49°28' W 000°06'0 0.2
2017-Sep-21 17:00N 49°28' W 000°06'0 0.1
2017-Sep-21 16:30N 49°28' W 000°06'0 0.0
2017-Sep-21 16:00N 49°28' W 000°06'0 0.1
2017-Sep-21 15:30N 49°28' W 000°06'0 0.0
2017-Sep-21 15:00N 49°28' W 000°06'0 0.1
2017-Sep-21 14:30N 49°28' W 000°06'4 8.8
2017-Sep-21 14:01N 49°30' W 000°12'712.1
2017-Sep-21 13:24N 49°38' W 000°11'512.4
2017-Sep-21 13:00N 49°42' W 000°10'3312.1
2017-Sep-21 10:15N 50°16' W 000°05'311.8
2017-Sep-21 10:00N 50°19' W 000°04'612.0
2017-Sep-21 09:30N 50°25' W 000°03'510.2
2017-Sep-21 09:01N 50°28' E 000°02'611.1
2017-Sep-21 08:31N 50°30' E 000°11'611.4
2017-Sep-21 08:00N 50°32' E 000°19'611.8
2017-Sep-21 07:30N 50°33' E 000°28'612.5
2017-Sep-21 07:00N 50°36' E 000°37'713.6
2017-Sep-21 06:30N 50°40' E 000°46'714.9
2017-Sep-21 06:00N 50°44' E 000°55'1614.1
2017-Sep-21 04:52N 50°54' E 001°16'513.5
2017-Sep-21 04:28N 50°58' E 001°22'613.2
2017-Sep-21 04:00N 51°02' E 001°28'611.8
2017-Sep-21 03:30N 51°07' E 001°34'510.7
2017-Sep-21 03:01N 51°10' E 001°40'510.9
2017-Sep-21 02:30N 51°14' E 001°47'510.4
2017-Sep-21 02:00N 51°18' E 001°52'510.5
2017-Sep-21 01:30N 51°22' E 001°57'5 9.5
2017-Sep-21 01:01N 51°24' E 002°04'612.4
2017-Sep-21 00:30N 51°21' E 002°12'611.1
2017-Sep-21 00:01N 51°22' E 002°21'611.6
2017-Sep-20 23:31N 51°23' E 002°30'612.2
2017-Sep-20 23:01N 51°23' E 002°40'712.2
2017-Sep-20 22:28N 51°22' E 002°50'715.0
2017-Sep-20 22:00N 51°24' E 003°01'714.4
2017-Sep-20 21:31N 51°25' E 003°12'714.6
2017-Sep-20 21:00N 51°25' E 003°24'713.7
2017-Sep-20 20:30N 51°25' E 003°35'5 9.3
2017-Sep-20 20:00N 51°24' E 003°42'611.9
2017-Sep-20 19:30N 51°20' E 003°49'0 0.0
2017-Sep-20 19:00N 51°20' E 003°49'0 0.9
2017-Sep-20 18:31N 51°19' E 003°49'2 3.0
2017-Sep-20 18:00N 51°18' E 003°50'3 6.1
2017-Sep-20 17:30N 51°15' E 003°49'4 7.2
2017-Sep-20 17:01N 51°11' E 003°48'2 4.1
2017-Sep-20 16:31N 51°09' E 003°47'3 6.7
2017-Sep-20 16:01N 51°07' E 003°44'1 2.0
2017-Sep-20 15:28N 51°05' E 003°44'0 0.0
2017-Sep-20 15:00N 51°05' E 003°44'0 0.0
2017-Sep-20 14:01N 51°05' E 003°44'0 0.0
2017-Sep-20 13:28N 51°05' E 003°44'0 0.0
2017-Sep-20 12:59N 51°05' E 003°44'0 0.0
2017-Sep-20 12:28N 51°05' E 003°44'0 0.0
2017-Sep-20 12:00N 51°05' E 003°44'0 0.0
2017-Sep-20 11:30N 51°05' E 003°44'0 0.0
2017-Sep-20 11:01N 51°05' E 003°44'0 0.0
2017-Sep-20 10:30N 51°05' E 003°44'0 0.0
2017-Sep-20 10:00N 51°05' E 003°44'0 0.0
2017-Sep-20 09:31N 51°05' E 003°44'0 0.0
2017-Sep-20 09:00N 51°05' E 003°44'0 0.0
2017-Sep-20 08:30N 51°05' E 003°44'0 0.0
2017-Sep-20 08:00N 51°05' E 003°44'0 0.0
2017-Sep-20 07:30N 51°05' E 003°44'0 0.0
2017-Sep-20 06:58N 51°05' E 003°44'0 0.0
2017-Sep-20 06:25N 51°05' E 003°44'0 0.0
2017-Sep-20 05:58N 51°05' E 003°44'0 0.0
2017-Sep-20 05:28N 51°05' E 003°44'0 0.0
2017-Sep-20 04:58N 51°05' E 003°44'0 0.0
2017-Sep-20 04:28N 51°05' E 003°44'0 0.0
2017-Sep-20 03:58N 51°05' E 003°44'0 0.0
2017-Sep-20 03:28N 51°05' E 003°44'0 0.0
2017-Sep-20 02:58N 51°05' E 003°44'0 0.0
2017-Sep-20 02:29N 51°05' E 003°44'0 0.0
2017-Sep-20 01:59N 51°05' E 003°44'0 0.0
2017-Sep-20 01:30N 51°05' E 003°44'0 0.0
2017-Sep-20 00:59N 51°05' E 003°44'0 0.0
2017-Sep-20 00:29N 51°05' E 003°44'0 0.0
2017-Sep-20 00:00N 51°05' E 003°44'0 0.0
2017-Sep-19 23:30N 51°05' E 003°44'0 0.0
2017-Sep-19 23:00N 51°05' E 003°44'0 0.0
2017-Sep-19 22:31N 51°05' E 003°44'0 0.0
2017-Sep-19 22:01N 51°05' E 003°44'0 0.0
2017-Sep-19 21:29N 51°05' E 003°44'0 0.0
2017-Sep-19 20:59N 51°05' E 003°44'0 0.0
2017-Sep-19 20:26N 51°05' E 003°44'0 0.0
2017-Sep-19 19:59N 51°05' E 003°44'0 0.0
2017-Sep-19 19:29N 51°05' E 003°44'0 0.0
2017-Sep-19 18:59N 51°05' E 003°44'0 0.0
2017-Sep-19 18:29N 51°05' E 003°44'0 0.0
2017-Sep-19 17:59N 51°05' E 003°44'0 0.0
2017-Sep-19 17:29N 51°05' E 003°44'0 0.0
2017-Sep-19 17:00N 51°05' E 003°44'0 0.0
2017-Sep-19 16:29N 51°05' E 003°44'0 0.0
2017-Sep-19 16:00N 51°05' E 003°44'0 0.0
2017-Sep-19 15:26N 51°05' E 003°44'0 0.0
2017-Sep-19 14:59N 51°05' E 003°44'0 0.0
2017-Sep-19 14:29N 51°05' E 003°44'0 0.0
2017-Sep-19 14:00N 51°05' E 003°44'0 0.0
2017-Sep-19 13:29N 51°05' E 003°44'0 0.0
2017-Sep-19 12:59N 51°05' E 003°44'0 0.0
2017-Sep-19 12:30N 51°05' E 003°44'0 0.0
2017-Sep-19 12:00N 51°05' E 003°44'0 0.0
2017-Sep-19 11:30N 51°05' E 003°44'0 0.0
2017-Sep-19 11:00N 51°05' E 003°44'0 0.0
2017-Sep-19 10:31N 51°05' E 003°44'0 0.0
2017-Sep-19 10:01N 51°05' E 003°44'0 0.0
2017-Sep-19 09:30N 51°05' E 003°44'0 0.0
2017-Sep-19 08:55N 51°05' E 003°44'0 0.0
2017-Sep-19 08:28N 51°05' E 003°44'0 0.0
2017-Sep-19 07:55N 51°05' E 003°44'0 0.0
2017-Sep-19 07:28N 51°05' E 003°44'0 0.0
2017-Sep-19 06:58N 51°05' E 003°44'0 0.0
2017-Sep-19 06:30N 51°05' E 003°44'0 0.0
2017-Sep-19 05:58N 51°05' E 003°44'0 0.0
2017-Sep-19 05:26N 51°05' E 003°44'0 0.0
2017-Sep-19 04:58N 51°05' E 003°44'0 0.0
2017-Sep-19 04:29N 51°05' E 003°44'0 0.0
2017-Sep-19 03:58N 51°05' E 003°44'0 0.0
2017-Sep-19 03:30N 51°05' E 003°44'0 0.0
2017-Sep-19 02:59N 51°05' E 003°44'0 0.0
2017-Sep-19 02:30N 51°05' E 003°44'0 0.0
2017-Sep-19 02:00N 51°05' E 003°44'0 0.0
2017-Sep-19 01:28N 51°05' E 003°44'0 0.0
2017-Sep-19 01:00N 51°05' E 003°44'0 0.0
2017-Sep-19 00:30N 51°05' E 003°44'0 0.0
2017-Sep-19 00:01N 51°05' E 003°44'0 0.0
2017-Sep-18 23:28N 51°05' E 003°44'0 0.0
2017-Sep-18 22:58N 51°05' E 003°44'0 0.0
2017-Sep-18 22:30N 51°05' E 003°44'0 0.0
2017-Sep-18 22:01N 51°05' E 003°44'0 0.0
2017-Sep-18 21:31N 51°05' E 003°44'0 0.0
2017-Sep-18 21:00N 51°05' E 003°44'0 0.0
2017-Sep-18 20:28N 51°05' E 003°44'0 0.0
2017-Sep-18 19:59N 51°05' E 003°44'0 0.0
2017-Sep-18 19:28N 51°05' E 003°44'0 0.0
2017-Sep-18 19:01N 51°05' E 003°44'0 0.0
2017-Sep-18 18:28N 51°05' E 003°44'0 0.0
2017-Sep-18 17:59N 51°05' E 003°44'0 0.0
2017-Sep-18 17:30N 51°05' E 003°44'0 0.0
2017-Sep-18 16:59N 51°05' E 003°44'0 0.0
2017-Sep-18 16:30N 51°05' E 003°44'0 0.0
2017-Sep-18 16:00N 51°05' E 003°44'0 0.0
2017-Sep-18 15:25N 51°05' E 003°44'0 0.0
2017-Sep-18 14:58N 51°05' E 003°44'0 0.0
2017-Sep-18 14:30N 51°05' E 003°44'0 0.0
2017-Sep-18 13:58N 51°05' E 003°44'0 0.0
2017-Sep-18 13:29N 51°05' E 003°44'0 0.0
2017-Sep-18 13:00N 51°05' E 003°44'0 0.0
2017-Sep-18 12:29N 51°05' E 003°44'0 0.0
2017-Sep-18 11:59N 51°05' E 003°44'0 0.0
2017-Sep-18 11:28N 51°05' E 003°44'0 0.0
2017-Sep-18 10:59N 51°05' E 003°44'0 0.0
2017-Sep-18 10:29N 51°05' E 003°44'0 0.0
2017-Sep-18 09:59N 51°05' E 003°44'0 0.0
2017-Sep-18 09:30N 51°05' E 003°44'0 0.0
2017-Sep-18 08:59N 51°05' E 003°44'0 0.0
2017-Sep-18 08:29N 51°05' E 003°44'0 0.0
2017-Sep-18 07:59N 51°05' E 003°44'0 0.0
2017-Sep-18 07:29N 51°05' E 003°44'0 0.0
2017-Sep-18 06:56N 51°05' E 003°44'0 0.0
2017-Sep-18 06:29N 51°05' E 003°44'0 0.0
2017-Sep-18 06:00N 51°05' E 003°44'0 0.0
2017-Sep-18 05:30N 51°05' E 003°44'0 0.0
2017-Sep-18 04:57N 51°05' E 003°44'0 0.0
2017-Sep-18 04:29N 51°05' E 003°44'0 0.0
2017-Sep-18 03:58N 51°05' E 003°44'0 0.0
2017-Sep-18 03:28N 51°05' E 003°44'0 0.0
2017-Sep-18 02:58N 51°05' E 003°44'0 0.0
2017-Sep-18 02:28N 51°05' E 003°44'0 0.0
2017-Sep-18 01:58N 51°05' E 003°44'0 0.0
2017-Sep-18 01:29N 51°05' E 003°44'0 0.0
2017-Sep-18 01:00N 51°05' E 003°44'0 0.0
2017-Sep-18 00:31N 51°05' E 003°44'0 0.0
2017-Sep-18 00:00N 51°05' E 003°44'0 0.0
2017-Sep-17 23:31N 51°05' E 003°44'0 0.0
2017-Sep-17 23:00N 51°05' E 003°44'0 0.0
2017-Sep-17 22:28N 51°05' E 003°44'0 0.0
2017-Sep-17 21:59N 51°05' E 003°44'0 0.0
2017-Sep-17 21:29N 51°05' E 003°44'0 0.0
2017-Sep-17 21:01N 51°05' E 003°44'0 0.0
2017-Sep-17 20:30N 51°05' E 003°44'0 0.0
2017-Sep-17 20:00N 51°05' E 003°44'0 0.0
2017-Sep-17 19:26N 51°05' E 003°44'0 0.0
2017-Sep-17 19:00N 51°05' E 003°44'0 0.0
2017-Sep-17 18:26N 51°05' E 003°44'0 0.8
2017-Sep-17 18:01N 51°06' E 003°44'3 5.1
2017-Sep-17 17:31N 51°08' E 003°46'3 6.9
2017-Sep-17 17:01N 51°11' E 003°48'3 6.8
2017-Sep-17 16:31N 51°14' E 003°49'3 6.3
2017-Sep-17 16:01N 51°17' E 003°50'2 4.6
2017-Sep-17 15:30N 51°20' E 003°49'0 0.8
2017-Sep-17 15:00N 51°20' E 003°49'3 6.2
2017-Sep-17 14:30N 51°22' E 003°45'4 8.3
2017-Sep-17 14:00N 51°26' E 003°41'4 7.7
2017-Sep-17 13:30N 51°26' E 003°35'3 6.9
2017-Sep-17 13:00N 51°28' E 003°31'510.4
2017-Sep-17 12:30N 51°32' E 003°25'4 8.8
2017-Sep-17 12:00N 51°36' E 003°23'12510.8
2017-Sep-17 00:28N 53°30' E 004°46'511.1
2017-Sep-17 00:01N 53°32' E 004°54'10210.8
2017-Sep-16 14:38N 54°01' E 007°39'1110.7
2017-Sep-16 13:37N 54°01' E 007°58'111.2
2017-Sep-16 13:30N 54°01' E 007°60'611.7
2017-Sep-16 13:01N 54°01' E 008°10'713.3
2017-Sep-16 12:30N 53°60' E 008°21'815.4
2017-Sep-16 12:00N 53°58' E 008°34'815.3
2017-Sep-16 11:30N 53°53' E 008°43'713.2
2017-Sep-16 11:01N 53°51' E 008°53'713.1
2017-Sep-16 10:31N 53°52' E 009°04'3 6.1
2017-Sep-16 10:00N 53°54' E 009°09'0 0.4
2017-Sep-16 09:30N 53°54' E 009°09'2 4.7
2017-Sep-16 09:01N 53°55' E 009°12'3 6.9
2017-Sep-16 08:30N 53°58' E 009°15'3 6.8
2017-Sep-16 08:00N 54°01' E 009°18'3 5.1
2017-Sep-16 07:30N 54°04' E 009°19'44 5.5
2017-Sep-15 23:32N 54°30' E 010°19'112.5
2017-Sep-15 23:28N 54°31' E 010°20'612.1
2017-Sep-15 23:00N 54°33' E 010°29'612.2
2017-Sep-15 22:30N 54°35' E 010°39'612.4
2017-Sep-15 22:00N 54°36' E 010°49'612.1
2017-Sep-15 21:30N 54°36' E 010°60'611.9
2017-Sep-15 21:00N 54°36' E 011°10'612.3
2017-Sep-15 20:30N 54°34' E 011°20'612.1
2017-Sep-15 20:00N 54°31' E 011°29'612.2
2017-Sep-15 19:30N 54°28' E 011°38'612.5
2017-Sep-15 19:00N 54°27' E 011°49'911.9
2017-Sep-15 18:17N 54°26' E 012°04'311.4
2017-Sep-15 18:00N 54°27' E 012°09'611.3
2017-Sep-15 17:30N 54°32' E 012°12'611.3
2017-Sep-15 17:00N 54°37' E 012°18'5511.5
2017-Sep-15 12:13N 54°60' E 013°44'711.5
2017-Sep-15 11:37N 55°02' E 013°56'511.5
2017-Sep-15 11:13N 55°04' E 014°03'511.5
2017-Sep-15 10:48N 55°08' E 014°09'411.7
2017-Sep-15 10:28N 55°11' E 014°14'711.9
2017-Sep-15 09:53N 55°16' E 014°21'712.4
2017-Sep-15 09:19N 55°21' E 014°29'412.5
2017-Sep-15 09:00N 55°24' E 014°34'1212.1
2017-Sep-15 08:03N 55°30' E 014°51'311.8
2017-Sep-15 07:47N 55°32' E 014°56'412.0
2017-Sep-15 07:26N 55°34' E 015°03'512.3
2017-Sep-15 07:00N 55°36' E 015°11'612.4
2017-Sep-15 06:30N 55°39' E 015°21'  

Dump ship's entire track history